Time;durP1;ratioP1;P1;durP2;ratioP2;P2;SDS_P1;SDS_P2;PMS_P1;PMS_P2;Temp;Humidity;BMP_temperature;BMP_pressure;BME280_temperature;BME280_humidity;BME280_pressure;Samples;Min_cycle;Max_cycle;Signal;HPM_P1;HPM_P2
2020/12/13 00:00:29;;;;;;;385.10;349.67;;;;;;;;;;5054098;28;20067;-69
2020/12/13 00:02:56;;;;;;;376.70;341.73;;;;;;;;;;5054569;28;20021;-69
2020/12/13 00:05:22;;;;;;;352.48;318.13;;;;;;;;;;5060326;28;20036;-68
2020/12/13 00:07:48;;;;;;;353.50;319.23;;;;;;;;;;5055829;28;20025;-69
2020/12/13 00:10:14;;;;;;;342.70;308.77;;;;;;;;;;5042594;28;20025;-69
2020/12/13 00:12:40;;;;;;;351.73;317.45;;;;;;;;;;5043244;28;20052;-69
2020/12/13 00:15:06;;;;;;;377.20;341.80;;;;;;;;;;5046933;28;20385;-69
2020/12/13 00:17:33;;;;;;;360.63;326.05;;;;;;;;;;5054726;28;20044;-69
2020/12/13 00:19:59;;;;;;;391.35;355.48;;;;;;;;;;5052514;28;20028;-69
2020/12/13 00:22:25;;;;;;;362.20;327.20;;;;;;;;;;5053748;28;20029;-69
2020/12/13 00:24:51;;;;;;;367.90;333.05;;;;;;;;;;5053019;28;20037;-68
2020/12/13 00:27:17;;;;;;;359.08;324.42;;;;;;;;;;5054674;28;20489;-68
2020/12/13 00:29:43;;;;;;;371.50;336.15;;;;;;;;;;5051821;28;20117;-68
2020/12/13 00:32:09;;;;;;;356.33;321.60;;;;;;;;;;5051143;28;20116;-68
2020/12/13 00:34:36;;;;;;;355.52;321.20;;;;;;;;;;5051767;28;21907;-69
2020/12/13 00:37:02;;;;;;;358.05;323.85;;;;;;;;;;5059793;28;20033;-69
2020/12/13 00:39:28;;;;;;;353.25;318.92;;;;;;;;;;5048376;28;20079;-69
2020/12/13 00:41:54;;;;;;;355.30;321.25;;;;;;;;;;5070890;28;20119;-68
2020/12/13 00:44:21;;;;;;;366.60;331.50;;;;;;;;;;5054764;28;20025;-69
2020/12/13 00:46:47;;;;;;;335.08;301.55;;;;;;;;;;5048599;28;20467;-70
2020/12/13 00:49:14;;;;;;;364.00;329.50;;;;;;;;;;5057101;28;20025;-69
2020/12/13 00:51:40;;;;;;;376.20;341.20;;;;;;;;;;5061953;28;20033;-69
2020/12/13 00:54:06;;;;;;;299.73;267.85;;;;;;;;;;5041714;28;20021;-70
2020/12/13 00:56:33;;;;;;;326.73;293.63;;;;;;;;;;5054781;28;20489;-69
2020/12/13 00:58:59;;;;;;;353.50;319.25;;;;;;;;;;5046641;28;20033;-69
2020/12/13 01:01:25;;;;;;;359.90;325.15;;;;;;;;;;5055302;28;20115;-69
2020/12/13 01:03:51;;;;;;;319.90;286.98;;;;;;;;;;5048810;28;20029;-69
2020/12/13 01:06:21;;;;;;;335.13;301.52;;;;;;;;;;5049121;28;20036;-70
2020/12/13 01:08:47;;;;;;;378.63;343.52;;;;;;;;;;5049497;28;20021;-69
2020/12/13 01:11:13;;;;;;;365.90;331.10;;;;;;;;;;5052445;28;20121;-69
2020/12/13 01:13:39;;;;;;;356.90;322.58;;;;;;;;;;5048278;28;20017;-69
2020/12/13 01:19:27;;;;;;;371.20;336.20;;;;;;;;;;5044704;28;20105;-69
2020/12/13 01:21:56;;;;;;;355.05;320.65;;;;;;;;;;5037499;28;20517;-69
2020/12/13 01:24:23;;;;;;;336.60;303.20;;;;;;;;;;5033510;28;20037;-70
2020/12/13 01:26:49;;;;;;;;;;;;;;;;;;5030800;28;20033;-69
2020/12/13 01:29:15;;;;;;;390.98;355.40;;;;;;;;;;5033004;28;20050;-69
2020/12/13 01:31:41;;;;;;;370.15;335.10;;;;;;;;;;5039363;28;20044;-69
2020/12/13 01:34:07;;;;;;;360.50;325.80;;;;;;;;;;5030470;28;20048;-69
2020/12/13 01:36:52;;;;;;;376.92;341.77;;;;;;;;;;5032775;28;20041;-70
2020/12/13 01:39:19;;;;;;;364.42;329.80;;;;;;;;;;5028190;28;20021;-70
2020/12/13 01:41:45;;;;;;;406.35;369.85;;;;;;;;;;5036624;28;20482;-69
2020/12/13 01:44:11;;;;;;;394.65;358.83;;;;;;;;;;5024224;28;20025;-69
2020/12/13 01:46:38;;;;;;;399.60;363.48;;;;;;;;;;5031695;28;20409;-69
2020/12/13 01:49:07;;;;;;;324.25;291.27;;;;;;;;;;5024587;28;20025;-69
2020/12/13 01:54:14;;;;;;;363.60;328.73;;;;;;;;;;5026124;28;20029;-69
2020/12/13 01:56:41;;;;;;;376.60;341.37;;;;;;;;;;5030604;28;20387;-69
2020/12/13 01:59:07;;;;;;;;;;;;;;;;;;5029290;28;20030;-69
2020/12/13 02:01:38;;;;;;;364.42;329.83;;;;;;;;;;5035439;28;20255;-69
2020/12/13 02:04:06;;;;;;;395.48;359.25;;;;;;;;;;5027787;28;20037;-70
2020/12/13 02:06:34;;;;;;;377.88;342.50;;;;;;;;;;5031840;28;20030;-69
2020/12/13 02:09:00;;;;;;;341.63;308.10;;;;;;;;;;5020612;28;20025;-69
2020/12/13 02:11:27;;;;;;;369.10;333.92;;;;;;;;;;5035752;28;20033;-69
2020/12/13 02:13:53;;;;;;;382.63;347.38;;;;;;;;;;5021790;28;20116;-69
2020/12/13 02:16:19;;;;;;;405.58;369.10;;;;;;;;;;5031973;28;20120;-69
2020/12/13 02:18:46;;;;;;;376.88;341.55;;;;;;;;;;5030035;28;20524;-69
2020/12/13 02:21:12;;;;;;;392.98;356.85;;;;;;;;;;5032177;28;20522;-69
2020/12/13 02:23:39;;;;;;;380.20;344.93;;;;;;;;;;5029148;28;20025;-69
2020/12/13 02:26:09;;;;;;;344.80;311.05;;;;;;;;;;5032070;28;20292;-70
2020/12/13 02:28:36;;;;;;;317.33;284.38;;;;;;;;;;5030160;28;20481;-69
2020/12/13 02:31:03;;;;;;;384.35;348.77;;;;;;;;;;5031584;28;20478;-70
2020/12/13 02:33:29;;;;;;;364.98;330.05;;;;;;;;;;5031954;28;20104;-69
2020/12/13 02:35:55;;;;;;;364.13;329.15;;;;;;;;;;5031652;28;20042;-69
2020/12/13 02:38:21;;;;;;;376.17;341.02;;;;;;;;;;5027722;28;20041;-69
2020/12/13 02:40:47;;;;;;;377.10;341.88;;;;;;;;;;5041079;28;20128;-70
2020/12/13 02:43:13;;;;;;;367.60;332.80;;;;;;;;;;5022270;28;20482;-68
2020/12/13 02:45:39;;;;;;;357.30;322.65;;;;;;;;;;5029609;28;20045;-69
2020/12/13 02:48:05;;;;;;;391.60;355.15;;;;;;;;;;5030683;28;20025;-68
2020/12/13 02:50:32;;;;;;;368.90;333.95;;;;;;;;;;5033036;28;20041;-69
2020/12/13 02:53:01;;;;;;;394.90;359.00;;;;;;;;;;5032449;28;20036;-69
2020/12/13 02:55:27;;;;;;;394.83;358.95;;;;;;;;;;5026882;28;20448;-69
2020/12/13 02:57:53;;;;;;;388.27;352.55;;;;;;;;;;5030397;28;20366;-69
2020/12/13 03:00:19;;;;;;;397.50;361.42;;;;;;;;;;5026055;28;20056;-69
2020/12/13 03:02:45;;;;;;;347.58;313.27;;;;;;;;;;5028643;28;20450;-69
2020/12/13 03:05:11;;;;;;;351.40;317.33;;;;;;;;;;5025751;28;20065;-69
2020/12/13 03:07:37;;;;;;;357.80;323.65;;;;;;;;;;5026667;28;20046;-69
2020/12/13 03:10:03;;;;;;;355.67;321.38;;;;;;;;;;5033373;28;20405;-69
2020/12/13 03:12:29;;;;;;;346.20;311.90;;;;;;;;;;5029644;28;20032;-70
2020/12/13 03:14:56;;;;;;;350.77;316.73;;;;;;;;;;5028568;28;20065;-70
2020/12/13 03:17:22;;;;;;;402.80;366.70;;;;;;;;;;5036349;28;20053;-70
2020/12/13 03:19:48;;;;;;;290.35;258.85;;;;;;;;;;5033757;28;20548;-70
2020/12/13 03:22:14;;;;;;;344.45;310.52;;;;;;;;;;5039585;28;20087;-70
2020/12/13 03:24:40;;;;;;;359.00;324.90;;;;;;;;;;5031785;28;20026;-70
2020/12/13 03:27:06;;;;;;;342.48;308.85;;;;;;;;;;5038795;28;20359;-70
2020/12/13 03:29:32;;;;;;;391.73;356.00;;;;;;;;;;5033461;28;20025;-70
2020/12/13 03:31:58;;;;;;;354.95;320.80;;;;;;;;;;5034179;28;20057;-70
2020/12/13 03:34:24;;;;;;;357.73;323.27;;;;;;;;;;5026028;28;20029;-69
2020/12/13 03:36:50;;;;;;;351.67;317.48;;;;;;;;;;5047457;28;20052;-69
2020/12/13 03:39:16;;;;;;;346.92;313.15;;;;;;;;;;5030763;28;20025;-70
2020/12/13 03:41:42;;;;;;;379.27;343.77;;;;;;;;;;5032611;28;20112;-69
2020/12/13 03:44:12;;;;;;;387.52;351.92;;;;;;;;;;5032551;28;20032;-70
2020/12/13 03:46:39;;;;;;;325.30;292.52;;;;;;;;;;5020647;28;20495;-69
2020/12/13 03:49:05;;;;;;;390.95;355.40;;;;;;;;;;5034010;28;20163;-69
2020/12/13 03:51:31;;;;;;;353.50;319.25;;;;;;;;;;5036560;28;20026;-69
2020/12/13 03:53:57;;;;;;;387.00;351.50;;;;;;;;;;5031739;28;20045;-69
2020/12/13 03:56:23;;;;;;;390.52;354.55;;;;;;;;;;5033959;28;20052;-69
2020/12/13 03:58:49;;;;;;;330.08;297.08;;;;;;;;;;5027226;28;20061;-70
2020/12/13 04:01:15;;;;;;;366.98;332.17;;;;;;;;;;5027283;28;20034;-69
2020/12/13 04:03:41;;;;;;;343.90;310.15;;;;;;;;;;5030716;28;20025;-69
2020/12/13 04:06:07;;;;;;;384.92;349.75;;;;;;;;;;5028242;28;20104;-69
2020/12/13 04:08:33;;;;;;;373.60;338.73;;;;;;;;;;5025782;28;20032;-69
2020/12/13 04:10:59;;;;;;;365.65;330.98;;;;;;;;;;5033367;28;20056;-69
2020/12/13 04:13:25;;;;;;;349.80;315.85;;;;;;;;;;5033511;28;20060;-69
2020/12/13 04:15:51;;;;;;;346.08;312.13;;;;;;;;;;5037254;28;20098;-69
2020/12/13 04:18:17;;;;;;;374.30;339.38;;;;;;;;;;5031841;28;20785;-69
2020/12/13 04:20:43;;;;;;;385.75;350.48;;;;;;;;;;5038086;28;20030;-69
2020/12/13 04:23:09;;;;;;;394.83;358.85;;;;;;;;;;5029133;28;20042;-69
2020/12/13 04:25:35;;;;;;;354.13;319.75;;;;;;;;;;5032019;28;20034;-69
2020/12/13 04:28:01;;;;;;;369.88;334.95;;;;;;;;;;5027190;28;20026;-69
2020/12/13 04:30:27;;;;;;;347.45;313.65;;;;;;;;;;5032722;28;20038;-69
2020/12/13 04:32:53;;;;;;;363.70;329.05;;;;;;;;;;5032065;28;20036;-69
2020/12/13 04:35:19;;;;;;;405.45;369.38;;;;;;;;;;5032418;28;20381;-69
2020/12/13 04:37:45;;;;;;;350.85;316.63;;;;;;;;;;5029017;28;20040;-69
2020/12/13 04:40:11;;;;;;;346.35;312.65;;;;;;;;;;5030390;28;20029;-69
2020/12/13 04:42:37;;;;;;;350.27;316.08;;;;;;;;;;5038285;28;20075;-70
2020/12/13 04:45:06;;;;;;;342.83;309.15;;;;;;;;;;5032567;28;20148;-69
2020/12/13 04:47:33;;;;;;;365.25;330.55;;;;;;;;;;5032719;28;20044;-69
2020/12/13 04:50:01;;;;;;;347.85;313.88;;;;;;;;;;5029059;28;20093;-70
2020/12/13 04:52:27;;;;;;;343.83;310.13;;;;;;;;;;5032199;28;20032;-69
2020/12/13 04:54:53;;;;;;;385.95;350.58;;;;;;;;;;5027691;28;20397;-68
2020/12/13 04:57:20;;;;;;;338.55;305.02;;;;;;;;;;5038522;28;20481;-69
2020/12/13 04:59:47;;;;;;;369.08;334.75;;;;;;;;;;5037401;28;20021;-69
2020/12/13 05:02:13;;;;;;;363.00;328.40;;;;;;;;;;5032859;28;20456;-69
2020/12/13 05:04:40;;;;;;;331.35;298.05;;;;;;;;;;5029180;28;20033;-70
2020/12/13 05:07:06;;;;;;;312.67;280.25;;;;;;;;;;5028790;28;20112;-69
2020/12/13 05:09:32;;;;;;;298.80;266.92;;;;;;;;;;5025515;28;20025;-70
2020/12/13 05:11:58;;;;;;;386.80;351.52;;;;;;;;;;5031554;28;20029;-69
2020/12/13 05:14:25;;;;;;;376.50;341.60;;;;;;;;;;5024190;28;20056;-69
2020/12/13 05:17:05;;;;;;;340.92;307.45;;;;;;;;;;5036559;28;20037;-69
2020/12/13 05:19:31;;;;;;;327.55;294.63;;;;;;;;;;5030088;28;20108;-69
2020/12/13 05:21:58;;;;;;;344.40;310.55;;;;;;;;;;5038764;28;20087;-69
2020/12/13 05:24:25;;;;;;;366.17;331.73;;;;;;;;;;5029390;28;20021;-69
2020/12/13 05:26:58;;;;;;;324.80;292.25;;;;;;;;;;5031445;28;20030;-68
2020/12/13 05:29:24;;;;;;;347.40;313.45;;;;;;;;;;5029406;28;20033;-69
2020/12/13 05:31:50;;;;;;;361.63;327.13;;;;;;;;;;5035278;28;20029;-69
2020/12/13 05:34:17;;;;;;;356.65;322.58;;;;;;;;;;5030923;28;20030;-69
2020/12/13 05:36:44;;;;;;;384.38;349.10;;;;;;;;;;5032803;28;20379;-69
2020/12/13 05:39:10;;;;;;;337.48;303.98;;;;;;;;;;5030554;28;20028;-68
2020/12/13 05:41:38;;;;;;;353.73;319.35;;;;;;;;;;5029928;28;20064;-68
2020/12/13 05:52:03;;;;;;;351.50;317.65;;;;;;;;;;5026250;28;20079;-69
2020/12/13 05:54:30;;;;;;;373.05;338.55;;;;;;;;;;5022889;28;20124;-69
2020/12/13 05:56:57;;;;;;;409.45;373.10;;;;;;;;;;5033030;28;20040;-69
2020/12/13 05:59:26;;;;;;;354.05;319.98;;;;;;;;;;5030162;28;20033;-69
2020/12/13 06:01:56;;;;;;;334.73;301.38;;;;;;;;;;5035081;28;20033;-69
2020/12/13 06:04:25;;;;;;;401.63;365.60;;;;;;;;;;5036179;28;20034;-69
2020/12/13 06:06:54;;;;;;;375.70;341.05;;;;;;;;;;5030603;28;20034;-69
2020/12/13 06:09:28;;;;;;;313.60;281.45;;;;;;;;;;5030116;28;20083;-69
2020/12/13 06:11:59;;;;;;;358.50;324.00;;;;;;;;;;5041747;28;20401;-68
2020/12/13 06:14:25;;;;;;;356.15;321.98;;;;;;;;;;5019723;28;20167;-69
2020/12/13 06:16:51;;;;;;;399.98;363.90;;;;;;;;;;5034763;28;20041;-69
2020/12/13 06:19:22;;;;;;;357.08;322.88;;;;;;;;;;5021374;28;20397;-69
2020/12/13 06:21:49;;;;;;;335.77;302.45;;;;;;;;;;5024788;28;20033;-70
2020/12/13 06:24:16;;;;;;;354.80;320.58;;;;;;;;;;5032811;28;20022;-69
2020/12/13 06:26:42;;;;;;;380.95;346.02;;;;;;;;;;5032978;28;20029;-69
2020/12/13 06:29:09;;;;;;;345.50;312.00;;;;;;;;;;5029155;28;20026;-68
2020/12/13 06:31:35;;;;;;;351.25;317.55;;;;;;;;;;5025932;28;20025;-69
2020/12/13 06:34:02;;;;;;;398.70;363.17;;;;;;;;;;5029330;28;20108;-69
2020/12/13 06:36:28;;;;;;;396.33;360.50;;;;;;;;;;5025204;28;20051;-69
2020/12/13 06:38:57;;;;;;;352.95;319.15;;;;;;;;;;5019661;28;20026;-69
2020/12/13 06:41:28;;;;;;;357.92;323.85;;;;;;;;;;5030092;28;20037;-69
2020/12/13 06:43:54;;;;;;;325.73;292.65;;;;;;;;;;5025665;28;20028;-69
2020/12/13 06:46:21;;;;;;;338.50;305.10;;;;;;;;;;5027262;28;20116;-69
2020/12/13 06:48:47;;;;;;;393.47;358.37;;;;;;;;;;5028426;28;20075;-70
2020/12/13 06:51:26;;;;;;;379.48;344.65;;;;;;;;;;5041036;28;20386;-69
2020/12/13 06:53:52;;;;;;;342.80;309.10;;;;;;;;;;5038894;28;20057;-70
2020/12/13 06:56:19;;;;;;;370.13;335.58;;;;;;;;;;5041398;28;20159;-69
2020/12/13 06:58:48;;;;;;;387.90;352.60;;;;;;;;;;5030994;28;20080;-69
2020/12/13 07:01:21;;;;;;;357.77;323.65;;;;;;;;;;5033077;28;20092;-70
2020/12/13 07:03:47;;;;;;;319.35;287.02;;;;;;;;;;5032332;28;20543;-69
2020/12/13 07:06:20;;;;;;;330.00;297.08;;;;;;;;;;5044207;28;20368;-70
2020/12/13 07:08:59;;;;;;;351.73;318.05;;;;;;;;;;5031418;28;20036;-70
2020/12/13 07:11:28;;;;;;;341.55;307.92;;;;;;;;;;5028471;28;20025;-70
2020/12/13 07:14:05;;;;;;;378.13;343.45;;;;;;;;;;5031745;28;20450;-70
2020/12/13 07:16:35;;;;;;;348.88;315.13;;;;;;;;;;5037381;28;20037;-70
2020/12/13 07:19:08;;;;;;;372.48;337.83;;;;;;;;;;5032243;28;20029;-69
2020/12/13 07:21:35;;;;;;;385.70;350.38;;;;;;;;;;5033097;28;20025;-69
2020/12/13 07:24:01;;;;;;;312.13;279.85;;;;;;;;;;5032795;28;20045;-70
2020/12/13 07:26:28;;;;;;;333.80;300.48;;;;;;;;;;5040263;28;20029;-70
2020/12/13 07:28:54;;;;;;;323.60;290.63;;;;;;;;;;5031997;28;20013;-70
2020/12/13 07:31:22;;;;;;;369.33;334.70;;;;;;;;;;5037378;28;20033;-70
2020/12/13 07:33:48;;;;;;;344.13;310.30;;;;;;;;;;5031277;28;20072;-70
2020/12/13 07:36:14;;;;;;;366.80;332.55;;;;;;;;;;5034762;28;20171;-69
2020/12/13 07:38:40;;;;;;;342.23;308.58;;;;;;;;;;5027476;28;20494;-70
2020/12/13 07:41:17;;;;;;;340.20;306.87;;;;;;;;;;5034966;28;20485;-70
2020/12/13 07:43:57;;;;;;;321.73;289.10;;;;;;;;;;5031918;28;20275;-70
2020/12/13 07:46:23;;;;;;;341.88;308.35;;;;;;;;;;5034595;28;20385;-70
2020/12/13 07:48:59;;;;;;;382.55;347.65;;;;;;;;;;5032692;28;20474;-70
2020/12/13 07:51:25;;;;;;;343.85;310.52;;;;;;;;;;5033380;28;20501;-69
2020/12/13 07:53:51;;;;;;;364.80;330.55;;;;;;;;;;5031229;28;20068;-69
2020/12/13 07:56:25;;;;;;;366.60;332.08;;;;;;;;;;5047026;28;20152;-69
2020/12/13 07:58:51;;;;;;;345.52;311.55;;;;;;;;;;5029813;28;20358;-69
2020/12/13 08:01:17;;;;;;;381.00;345.83;;;;;;;;;;5045695;28;20029;-69
2020/12/13 08:03:43;;;;;;;375.80;340.70;;;;;;;;;;5030261;28;20029;-69
2020/12/13 08:06:10;;;;;;;394.23;358.50;;;;;;;;;;5034058;28;20022;-69
2020/12/13 08:08:43;;;;;;;389.17;353.55;;;;;;;;;;5031319;28;20032;-69
2020/12/13 08:11:12;;;;;;;366.63;332.05;;;;;;;;;;5023181;28;20033;-68
2020/12/13 08:13:54;;;;;;;341.00;307.60;;;;;;;;;;5023237;28;20029;-69
2020/12/13 08:16:24;;;;;;;353.40;319.20;;;;;;;;;;5028408;28;20092;-69
2020/12/13 08:18:51;;;;;;;374.58;339.75;;;;;;;;;;5031102;28;20018;-68
2020/12/13 08:21:35;;;;;;;354.85;320.52;;;;;;;;;;5030409;28;20060;-68
2020/12/13 08:24:02;;;;;;;343.48;310.00;;;;;;;;;;5037623;28;20034;-68
2020/12/13 08:26:28;;;;;;;;;;;;;;;;;;5031432;28;20061;-68
2020/12/13 08:28:54;;;;;;;354.50;320.88;;;;;;;;;;5030935;28;19960;-68
2020/12/13 08:31:25;;;;;;;387.38;351.50;;;;;;;;;;5032482;28;20052;-68
2020/12/13 08:33:59;;;;;;;384.25;349.17;;;;;;;;;;5033922;28;20075;-68
2020/12/13 08:36:25;;;;;;;345.90;311.95;;;;;;;;;;5027926;28;20047;-68
2020/12/13 08:39:10;;;;;;;339.67;306.13;;;;;;;;;;5029714;28;20503;-69
2020/12/13 08:41:44;;;;;;;365.25;330.60;;;;;;;;;;5025915;28;20419;-68
2020/12/13 08:44:24;;;;;;;345.27;311.02;;;;;;;;;;5025725;28;20036;-69
2020/12/13 08:46:50;;;;;;;390.05;354.80;;;;;;;;;;5029161;28;20025;-68
2020/12/13 08:49:24;;;;;;;370.60;335.98;;;;;;;;;;5023829;28;20033;-68
2020/12/13 08:51:50;;;;;;;346.95;313.27;;;;;;;;;;5027562;28;20063;-70
2020/12/13 08:54:16;;;;;;;335.83;302.75;;;;;;;;;;5027349;28;20029;-69
2020/12/13 08:56:42;;;;;;;349.20;315.77;;;;;;;;;;5031216;28;20038;-69
2020/12/13 08:59:08;;;;;;;339.00;305.85;;;;;;;;;;5029952;28;20026;-69
2020/12/13 09:01:40;;;;;;;347.98;314.52;;;;;;;;;;5030963;28;20455;-69
2020/12/13 09:04:23;;;;;;;348.10;314.63;;;;;;;;;;5025896;28;20379;-69
2020/12/13 09:07:07;;;;;;;348.83;315.15;;;;;;;;;;5036023;28;20488;-69
2020/12/13 09:09:34;;;;;;;318.45;286.17;;;;;;;;;;5030515;28;20437;-69
2020/12/13 09:12:16;;;;;;;373.27;338.38;;;;;;;;;;5032717;28;20110;-68
2020/12/13 09:14:42;;;;;;;349.88;316.00;;;;;;;;;;5030540;28;20124;-68
2020/12/13 09:17:08;;;;;;;398.98;363.35;;;;;;;;;;5031940;28;20108;-68
2020/12/13 09:19:34;;;;;;;366.88;332.30;;;;;;;;;;5030759;28;20029;-68
2020/12/13 09:22:01;;;;;;;371.67;336.77;;;;;;;;;;5023933;28;20031;-68
2020/12/13 09:24:28;;;;;;;361.58;326.95;;;;;;;;;;5030161;28;20047;-68
2020/12/13 09:27:08;;;;;;;335.48;302.20;;;;;;;;;;5033423;28;20039;-68
2020/12/13 09:29:35;;;;;;;342.50;308.77;;;;;;;;;;5028570;28;21166;-68
2020/12/13 09:32:01;;;;;;;369.83;335.20;;;;;;;;;;5044708;28;20100;-68
2020/12/13 09:34:28;;;;;;;325.63;292.70;;;;;;;;;;5028888;28;20079;-69
2020/12/13 09:36:54;;;;;;;369.10;334.55;;;;;;;;;;5031596;28;20045;-68
2020/12/13 09:39:20;;;;;;;367.73;333.10;;;;;;;;;;5025936;28;20021;-69
2020/12/13 09:41:46;;;;;;;358.23;324.25;;;;;;;;;;5040915;28;20030;-69
2020/12/13 09:44:12;;;;;;;364.50;330.08;;;;;;;;;;5024536;28;20017;-68
2020/12/13 09:46:38;;;;;;;379.40;344.33;;;;;;;;;;5026674;28;20080;-68
2020/12/13 09:49:04;;;;;;;350.08;316.30;;;;;;;;;;5029813;28;20033;-69
2020/12/13 09:51:30;;;;;;;341.63;308.15;;;;;;;;;;5030724;28;20424;-69
2020/12/13 09:53:56;;;;;;;329.48;296.40;;;;;;;;;;5024948;28;20041;-69
2020/12/13 09:56:23;;;;;;;315.80;283.45;;;;;;;;;;5030021;28;20382;-69
2020/12/13 09:58:49;;;;;;;415.73;379.20;;;;;;;;;;5023833;28;20017;-69
2020/12/13 10:01:15;;;;;;;356.80;322.48;;;;;;;;;;5031926;28;20366;-69
2020/12/13 10:03:46;;;;;;;338.60;305.33;;;;;;;;;;5024554;28;20462;-69
2020/12/13 10:09:17;;;;;;;370.60;336.17;;;;;;;;;;5020275;28;20548;-69
2020/12/13 10:11:43;;;;;;;348.15;314.58;;;;;;;;;;5029169;28;20052;-69
2020/12/13 10:14:12;;;;;;;355.35;321.25;;;;;;;;;;5017791;28;20026;-69
2020/12/13 10:16:39;;;;;;;314.20;281.58;;;;;;;;;;5030154;28;20046;-69
2020/12/13 10:19:06;;;;;;;366.20;331.92;;;;;;;;;;5026854;28;20470;-68
2020/12/13 10:21:32;;;;;;;343.35;309.95;;;;;;;;;;5028508;28;20033;-67
2020/12/13 10:23:59;;;;;;;378.90;344.13;;;;;;;;;;5028001;28;20025;-68
2020/12/13 10:26:25;;;;;;;352.90;319.10;;;;;;;;;;5034931;28;20045;-68
2020/12/13 10:28:52;;;;;;;377.40;342.77;;;;;;;;;;5032365;28;20022;-68
2020/12/13 10:31:19;;;;;;;351.67;317.93;;;;;;;;;;5032657;28;20033;-68
2020/12/13 10:33:45;;;;;;;361.50;327.38;;;;;;;;;;5032439;28;20021;-69
2020/12/13 10:36:12;;;;;;;371.10;336.33;;;;;;;;;;5033934;28;20128;-68
2020/12/13 10:38:38;;;;;;;352.92;318.85;;;;;;;;;;5032664;28;20033;-68
2020/12/13 10:41:05;;;;;;;349.80;316.27;;;;;;;;;;5027280;28;20025;-68
2020/12/13 10:43:31;;;;;;;358.73;324.25;;;;;;;;;;5028931;28;20021;-68
2020/12/13 10:45:57;;;;;;;341.05;307.58;;;;;;;;;;5033678;28;20405;-68
2020/12/13 10:48:23;;;;;;;367.55;333.13;;;;;;;;;;5031219;28;20044;-68
2020/12/13 10:50:49;;;;;;;338.05;304.75;;;;;;;;;;5031691;28;20108;-68
2020/12/13 10:53:15;;;;;;;359.67;325.45;;;;;;;;;;5032421;28;20213;-69
2020/12/13 10:55:41;;;;;;;311.17;279.17;;;;;;;;;;5031403;28;20504;-69
2020/12/13 10:58:07;;;;;;;352.63;318.58;;;;;;;;;;5028734;28;20033;-68
2020/12/13 11:00:33;;;;;;;359.73;325.42;;;;;;;;;;5028596;28;20036;-69
2020/12/13 11:02:59;;;;;;;373.52;338.67;;;;;;;;;;5037016;28;20436;-68
2020/12/13 11:05:25;;;;;;;337.95;304.90;;;;;;;;;;5044034;28;20075;-68
2020/12/13 11:07:51;;;;;;;327.20;294.55;;;;;;;;;;5033094;28;20057;-68
2020/12/13 11:10:17;;;;;;;369.80;335.55;;;;;;;;;;5034224;28;20040;-68
2020/12/13 11:12:43;;;;;;;333.63;300.50;;;;;;;;;;5034334;28;20025;-68
2020/12/13 11:15:10;;;;;;;348.58;314.67;;;;;;;;;;5032102;28;20159;-68
2020/12/13 11:17:36;;;;;;;350.38;316.48;;;;;;;;;;5029674;28;20029;-68
2020/12/13 11:20:03;;;;;;;294.05;262.65;;;;;;;;;;5030722;28;20045;-68
2020/12/13 11:22:29;;;;;;;338.50;305.20;;;;;;;;;;5028084;28;20026;-68
2020/12/13 11:24:55;;;;;;;275.13;243.07;;;;;;;;;;5020513;28;20054;-68
2020/12/13 11:27:21;;;;;;;358.17;323.92;;;;;;;;;;5029846;28;20025;-68
2020/12/13 11:29:47;;;;;;;329.13;296.23;;;;;;;;;;5031805;28;20536;-69
2020/12/13 11:32:13;;;;;;;338.25;305.02;;;;;;;;;;5034285;28;20030;-69
2020/12/13 11:34:39;;;;;;;357.95;323.92;;;;;;;;;;5029700;28;20034;-69
2020/12/13 11:37:06;;;;;;;379.02;344.13;;;;;;;;;;5036087;28;20045;-69
2020/12/13 11:39:33;;;;;;;313.25;280.88;;;;;;;;;;5024719;28;20474;-69
2020/12/13 11:42:00;;;;;;;302.30;270.38;;;;;;;;;;5039330;28;20032;-68
2020/12/13 11:44:26;;;;;;;314.98;282.35;;;;;;;;;;5028371;28;20028;-68
2020/12/13 11:46:52;;;;;;;286.45;255.10;;;;;;;;;;5033980;28;20061;-68
2020/12/13 11:49:19;;;;;;;367.85;333.45;;;;;;;;;;5029567;28;20513;-69
2020/12/13 11:51:45;;;;;;;368.98;334.13;;;;;;;;;;5031855;28;20018;-68
2020/12/13 11:54:11;;;;;;;361.30;327.10;;;;;;;;;;5029189;28;20509;-68
2020/12/13 11:56:37;;;;;;;334.95;302.05;;;;;;;;;;5029078;28;20044;-68
2020/12/13 11:59:04;;;;;;;303.35;271.42;;;;;;;;;;5027436;28;20495;-68
2020/12/13 12:01:30;;;;;;;286.75;255.52;;;;;;;;;;5030289;28;20384;-69
2020/12/13 12:03:56;;;;;;;343.88;310.52;;;;;;;;;;5026075;28;20382;-69
2020/12/13 12:06:23;;;;;;;329.90;296.98;;;;;;;;;;5035240;28;20041;-68
2020/12/13 12:08:49;;;;;;;359.15;325.05;;;;;;;;;;5031395;28;20490;-69
2020/12/13 12:11:19;;;;;;;338.30;305.20;;;;;;;;;;5023918;28;20379;-69
2020/12/13 12:13:45;;;;;;;364.95;330.70;;;;;;;;;;5028102;28;20083;-69
2020/12/13 12:16:11;;;;;;;367.15;332.70;;;;;;;;;;5029143;28;20038;-69
2020/12/13 12:18:37;;;;;;;362.98;328.55;;;;;;;;;;5025909;28;20045;-69
2020/12/13 12:21:04;;;;;;;315.48;283.02;;;;;;;;;;5036417;28;20508;-69
2020/12/13 12:23:30;;;;;;;362.05;327.48;;;;;;;;;;5033768;28;20036;-69
2020/12/13 12:25:56;;;;;;;317.98;285.58;;;;;;;;;;5032953;28;20033;-69
2020/12/13 12:28:22;;;;;;;342.55;309.20;;;;;;;;;;5030296;28;20593;-69
2020/12/13 12:30:48;;;;;;;353.67;319.65;;;;;;;;;;5030336;28;20032;-69
2020/12/13 12:33:14;;;;;;;324.50;291.73;;;;;;;;;;5029909;28;20383;-69
2020/12/13 12:35:44;;;;;;;377.42;342.83;;;;;;;;;;5033324;28;20045;-69
2020/12/13 12:38:10;;;;;;;356.50;322.30;;;;;;;;;;5029698;28;20049;-68
2020/12/13 12:40:36;;;;;;;325.63;292.63;;;;;;;;;;5031528;28;20037;-69
2020/12/13 12:43:02;;;;;;;341.42;307.98;;;;;;;;;;5031241;28;20036;-69
2020/12/13 12:45:28;;;;;;;351.38;317.90;;;;;;;;;;5030017;28;20055;-69
2020/12/13 12:47:54;;;;;;;341.13;307.73;;;;;;;;;;5030448;28;20482;-69
2020/12/13 12:50:20;;;;;;;325.35;292.80;;;;;;;;;;5028765;28;20026;-69
2020/12/13 12:52:46;;;;;;;299.50;267.98;;;;;;;;;;5030613;28;20437;-69
2020/12/13 12:55:12;;;;;;;318.80;286.25;;;;;;;;;;5033545;28;20040;-69
2020/12/13 12:57:38;;;;;;;342.75;309.58;;;;;;;;;;5032344;28;20494;-69
2020/12/13 13:02:36;;;;;;;335.40;302.52;;;;;;;;;;5034433;28;20079;-69
2020/12/13 13:05:05;;;;;;;302.83;271.02;;;;;;;;;;5029906;28;20498;-69
2020/12/13 13:07:37;;;;;;;316.80;284.52;;;;;;;;;;5032727;28;20029;-69
2020/12/13 13:10:26;;;;;;;353.50;319.65;;;;;;;;;;5029012;28;20429;-69
2020/12/13 13:12:52;;;;;;;355.15;321.35;;;;;;;;;;5026352;28;20088;-69
2020/12/13 13:15:34;;;;;;;310.10;277.92;;;;;;;;;;5029414;28;20045;-69
2020/12/13 13:18:03;;;;;;;391.40;355.95;;;;;;;;;;5028773;28;20032;-69
2020/12/13 13:20:29;;;;;;;346.55;312.90;;;;;;;;;;5027631;28;20029;-69
2020/12/13 13:22:55;;;;;;;379.67;344.83;;;;;;;;;;5030713;28;20021;-69
2020/12/13 13:25:21;;;;;;;364.02;329.85;;;;;;;;;;5030533;28;20068;-69
2020/12/13 13:27:47;;;;;;;330.50;297.25;;;;;;;;;;5034844;28;20080;-69
2020/12/13 13:30:13;;;;;;;362.92;328.58;;;;;;;;;;5034332;28;20025;-69
2020/12/13 13:32:39;;;;;;;339.45;306.20;;;;;;;;;;5031982;28;20049;-69
2020/12/13 13:35:06;;;;;;;335.75;302.50;;;;;;;;;;5029233;28;20367;-69
2020/12/13 13:37:32;;;;;;;307.40;275.40;;;;;;;;;;5031793;28;20047;-69
2020/12/13 13:39:58;;;;;;;324.73;292.00;;;;;;;;;;5033309;28;20493;-69
2020/12/13 13:42:29;;;;;;;340.48;307.00;;;;;;;;;;5033433;28;20117;-69
2020/12/13 13:45:05;;;;;;;338.60;305.30;;;;;;;;;;5030168;28;20549;-68
2020/12/13 13:47:47;;;;;;;347.60;314.20;;;;;;;;;;5035506;28;20045;-68
2020/12/13 13:50:13;;;;;;;335.75;302.40;;;;;;;;;;5027395;28;20278;-68
2020/12/13 13:52:39;;;;;;;327.85;294.88;;;;;;;;;;5030033;28;20025;-69
2020/12/13 13:55:15;;;;;;;369.85;335.55;;;;;;;;;;5028790;28;20083;-68
2020/12/13 13:57:41;;;;;;;357.23;323.15;;;;;;;;;;5027836;28;20029;-68
2020/12/13 14:00:09;;;;;;;357.55;323.33;;;;;;;;;;5029352;28;20026;-69
2020/12/13 14:02:35;;;;;;;344.30;310.60;;;;;;;;;;5031523;28;20022;-69
2020/12/13 14:05:02;;;;;;;376.67;341.90;;;;;;;;;;5029576;28;20036;-69
2020/12/13 14:10:18;;;;;;;347.08;313.45;;;;;;;;;;5045507;28;20111;-68
2020/12/13 14:12:44;;;;;;;383.52;348.13;;;;;;;;;;5031314;28;20134;-67
2020/12/13 14:15:11;;;;;;;365.88;331.40;;;;;;;;;;5031504;28;20164;-68
2020/12/13 14:17:36;;;;;;;375.20;340.48;;;;;;;;;;5028833;28;20025;-68